Time;durP1;ratioP1;P1;durP2;ratioP2;P2;SDS_P1;SDS_P2;PMS_P1;PMS_P2;Temp;Humidity;BMP_temperature;BMP_pressure;BME280_temperature;BME280_humidity;BME280_pressure;Samples;Min_cycle;Max_cycle;Signal;HPM_P1;HPM_P2
2022/12/21 00:00:47;;;;;;;15.63;6.57;;;8.40;99.90;;;;;;5018770;28;20445;-70
2022/12/21 00:03:13;;;;;;;18.60;6.97;;;8.40;99.90;;;;;;5035350;28;20045;-70
2022/12/21 00:05:39;;;;;;;22.13;6.40;;;8.30;99.90;;;;;;5052708;28;20094;-70
2022/12/21 00:08:04;;;;;;;12.57;5.72;;;8.30;99.90;;;;;;5053104;28;20496;-70
2022/12/21 00:10:30;;;;;;;15.82;6.57;;;8.20;99.90;;;;;;5034962;28;20489;-70
2022/12/21 00:12:55;;;;;;;14.32;6.60;;;8.20;99.90;;;;;;5034522;28;20076;-70
2022/12/21 00:15:21;;;;;;;17.10;6.82;;;8.20;99.90;;;;;;5034754;28;20078;-70
2022/12/21 00:17:47;;;;;;;14.82;6.10;;;8.10;99.90;;;;;;5034947;28;20052;-70
2022/12/21 00:20:12;;;;;;;19.00;5.82;;;8.10;99.90;;;;;;5034861;28;20037;-70
2022/12/21 00:22:38;;;;;;;15.20;6.22;;;8.10;99.90;;;;;;5052978;28;20044;-70
2022/12/21 00:25:04;;;;;;;17.77;6.78;;;8.00;99.90;;;;;;5034822;28;20040;-70
2022/12/21 00:27:29;;;;;;;15.15;6.28;;;8.00;99.90;;;;;;5052918;28;20065;-70
2022/12/21 00:29:55;;;;;;;11.93;5.90;;;8.00;99.90;;;;;;5052790;28;20037;-70
2022/12/21 00:32:21;;;;;;;14.88;6.57;;;8.00;99.90;;;;;;5052853;28;20495;-70
2022/12/21 00:34:46;;;;;;;14.90;7.10;;;8.00;99.90;;;;;;5052562;28;20542;-70
2022/12/21 00:37:12;;;;;;;19.02;6.75;;;8.00;99.90;;;;;;5018937;28;20048;-70
2022/12/21 00:39:38;;;;;;;12.98;6.13;;;7.90;99.90;;;;;;5034662;28;20095;-70
2022/12/21 00:42:03;;;;;;;14.25;6.57;;;7.90;99.90;;;;;;5018164;28;20041;-70
2022/12/21 00:44:29;;;;;;;13.30;6.40;;;7.90;99.90;;;;;;5034605;28;20136;-70
2022/12/21 00:46:54;;;;;;;26.40;7.55;;;7.90;99.90;;;;;;5052677;28;20083;-70
2022/12/21 00:49:20;;;;;;;22.52;6.13;;;7.90;99.90;;;;;;5034610;28;20044;-70
2022/12/21 00:51:46;;;;;;;18.33;6.75;;;7.80;99.90;;;;;;5034829;28;20036;-70
2022/12/21 00:54:12;;;;;;;19.98;6.85;;;7.80;99.90;;;;;;5052730;28;20044;-70
2022/12/21 00:56:37;;;;;;;23.70;8.45;;;7.80;99.90;;;;;;5052282;28;20044;-70
2022/12/21 00:59:03;;;;;;;16.23;6.50;;;7.80;99.90;;;;;;5052476;28;20059;-70
2022/12/21 01:01:31;;;;;;;17.23;6.85;;;7.80;99.90;;;;;;5034477;28;20400;-70
2022/12/21 01:03:57;;;;;;;20.65;8.35;;;7.80;99.90;;;;;;5052571;28;20060;-70
2022/12/21 01:06:29;;;;;;;23.85;6.95;;;7.90;99.90;;;;;;5034267;28;20060;-70
2022/12/21 01:08:55;;;;;;;18.98;6.72;;;7.90;99.90;;;;;;5052570;28;20120;-70
2022/12/21 01:11:23;;;;;;;19.75;7.60;;;7.90;99.90;;;;;;5034716;28;20530;-70
2022/12/21 01:13:49;;;;;;;23.80;7.82;;;7.90;99.90;;;;;;5052456;28;20511;-70
2022/12/21 01:16:18;;;;;;;14.50;6.85;;;7.90;99.90;;;;;;5052437;28;20037;-70
2022/12/21 01:18:44;;;;;;;18.40;6.97;;;7.80;99.90;;;;;;5052354;28;20044;-69
2022/12/21 01:21:15;;;;;;;20.73;7.68;;;8.00;99.90;;;;;;5052213;28;20495;-71
2022/12/21 01:23:41;;;;;;;17.50;7.70;;;7.80;99.90;;;;;;5052032;28;20047;-70
2022/12/21 01:26:06;;;;;;;15.88;6.88;;;7.80;99.90;;;;;;5055055;28;20045;-70
2022/12/21 01:28:32;;;;;;;18.23;6.82;;;7.90;99.90;;;;;;5037845;28;20488;-70
2022/12/21 01:31:04;;;;;;;13.85;6.57;;;7.80;99.90;;;;;;5055697;28;20487;-70
2022/12/21 01:33:30;;;;;;;19.77;6.15;;;7.80;99.90;;;;;;5055571;28;20120;-70
2022/12/21 01:35:55;;;;;;;16.25;6.43;;;7.80;99.90;;;;;;5037987;28;20033;-70
2022/12/21 01:38:21;;;;;;;19.38;7.03;;;7.80;99.90;;;;;;5037567;28;20124;-70
2022/12/21 01:40:47;;;;;;;18.67;7.18;;;7.80;99.90;;;;;;5037666;28;20044;-70
2022/12/21 01:43:18;;;;;;;13.35;5.80;;;7.80;99.90;;;;;;5055459;28;20127;-70
2022/12/21 01:45:50;;;;;;;17.25;6.90;;;7.80;99.90;;;;;;5055618;28;20041;-70
2022/12/21 01:48:17;;;;;;;13.77;5.88;;;7.70;99.90;;;;;;5037453;28;20094;-70
2022/12/21 01:50:54;;;;;;;25.52;5.95;;;7.70;99.90;;;;;;5037240;28;20240;-71
2022/12/21 01:53:30;;;;;;;16.73;6.10;;;7.70;99.90;;;;;;5037659;28;20382;-70
2022/12/21 01:55:59;;;;;;;17.17;6.70;;;7.70;99.90;;;;;;5037557;28;20049;-70
2022/12/21 01:58:27;;;;;;;19.63;6.63;;;7.70;99.90;;;;;;5037170;28;20114;-70
2022/12/21 02:00:55;;;;;;;16.23;6.43;;;7.70;99.90;;;;;;5037200;28;20045;-70
2022/12/21 02:03:24;;;;;;;13.82;6.03;;;7.70;99.90;;;;;;5037198;28;20377;-70
2022/12/21 02:06:06;;;;;;;12.70;5.93;;;7.70;99.90;;;;;;5036939;28;20053;-70
2022/12/21 02:08:32;;;;;;;14.70;6.18;;;7.70;99.90;;;;;;5055241;28;20514;-70
2022/12/21 02:10:58;;;;;;;14.25;5.18;;;7.60;99.90;;;;;;5037428;28;20115;-70
2022/12/21 02:13:24;;;;;;;17.00;4.97;;;7.60;99.90;;;;;;5055106;28;20391;-70
2022/12/21 02:16:03;;;;;;;15.43;6.25;;;7.60;99.90;;;;;;5055038;28;20032;-70
2022/12/21 02:18:45;;;;;;;9.68;5.32;;;7.60;99.90;;;;;;5036817;28;20044;-70
2022/12/21 02:21:22;;;;;;;13.40;5.00;;;7.50;99.90;;;;;;5054743;28;20438;-70
2022/12/21 02:24:22;;;;;;;18.02;4.65;;;7.50;99.90;;;;;;5054904;28;20033;-70
2022/12/21 02:27:13;;;;;;;17.13;5.60;;;7.50;99.90;;;;;;5036726;28;20191;-70
2022/12/21 02:29:57;;;;;;;13.73;5.82;;;7.50;99.90;;;;;;5036650;28;20056;-70
2022/12/21 02:32:42;;;;;;;11.15;4.90;;;7.50;99.90;;;;;;5054764;28;20551;-70
2022/12/21 02:35:22;;;;;;;11.93;5.53;;;7.50;99.90;;;;;;5054757;28;20044;-70
2022/12/21 02:38:17;;;;;;;13.65;5.13;;;7.50;99.90;;;;;;5053696;28;20036;-70
2022/12/21 02:41:14;;;;;;;11.75;5.60;;;7.50;99.90;;;;;;5054624;28;20040;-70
2022/12/21 02:46:56;;;;;;;12.95;4.72;;;7.40;99.90;;;;;;5054504;28;20045;-70
2022/12/21 02:49:28;;;;;;;11.05;5.30;;;7.40;99.90;;;;;;5054493;28;20114;-70
2022/12/21 02:52:18;;;;;;;17.42;5.35;;;7.30;99.90;;;;;;5054063;28;20056;-70
2022/12/21 02:54:45;;;;;;;9.98;4.32;;;7.40;99.90;;;;;;5036178;28;20049;-70
2022/12/21 02:57:11;;;;;;;12.25;4.50;;;7.30;99.90;;;;;;5036111;28;20400;-70
2022/12/21 02:59:49;;;;;;;8.10;3.92;;;7.30;99.90;;;;;;5036172;28;20068;-70
2022/12/21 03:02:26;;;;;;;11.00;4.88;;;7.30;99.90;;;;;;5054156;28;20037;-69
2022/12/21 03:05:04;;;;;;;13.90;4.50;;;7.30;99.90;;;;;;5036028;28;20454;-70
2022/12/21 03:07:56;;;;;;;12.57;4.72;;;7.30;99.90;;;;;;5035954;28;20044;-70
2022/12/21 03:10:34;;;;;;;9.93;4.65;;;7.20;99.90;;;;;;5035938;28;20404;-70
2022/12/21 03:13:14;;;;;;;13.85;4.90;;;7.20;99.90;;;;;;5053677;28;20041;-70
2022/12/21 03:15:47;;;;;;;11.40;4.28;;;7.20;99.90;;;;;;5053643;28;20041;-70
2022/12/21 03:18:22;;;;;;;9.82;4.07;;;7.20;99.90;;;;;;5036063;28;20049;-70
2022/12/21 03:21:08;;;;;;;8.63;4.10;;;7.10;99.90;;;;;;5053793;28;20043;-70
2022/12/21 03:23:44;;;;;;;13.32;3.85;;;7.10;99.90;;;;;;5053479;28;20053;-70
2022/12/21 03:26:42;;;;;;;8.70;4.35;;;7.10;99.90;;;;;;5035900;28;20052;-70
2022/12/21 03:29:13;;;;;;;17.15;3.53;;;7.00;99.90;;;;;;5053698;28;20377;-70
2022/12/21 03:31:43;;;;;;;8.38;3.75;;;7.10;99.90;;;;;;5053690;28;20131;-70
2022/12/21 03:34:24;;;;;;;14.52;4.18;;;7.00;99.90;;;;;;5035465;28;20403;-69
2022/12/21 03:36:56;;;;;;;9.60;3.40;;;7.00;99.90;;;;;;5053561;28;20048;-70
2022/12/21 03:39:24;;;;;;;15.90;4.00;;;7.00;99.90;;;;;;5018938;28;20080;-69
2022/12/21 03:42:24;;;;;;;9.00;3.78;;;7.00;99.90;;;;;;5053484;28;20122;-70
2022/12/21 03:45:06;;;;;;;10.32;4.43;;;7.00;99.90;;;;;;5021334;28;20110;-70
2022/12/21 03:47:48;;;;;;;7.70;3.40;;;7.00;99.90;;;;;;5053353;28;20079;-72
2022/12/21 03:50:19;;;;;;;18.20;4.32;;;7.00;99.90;;;;;;5035244;28;20099;-70
2022/12/21 03:53:01;;;;;;;7.78;4.00;;;7.00;99.90;;;;;;5053268;28;20033;-71
2022/12/21 03:55:31;;;;;;;17.13;4.38;;;7.00;99.90;;;;;;5053065;28;20037;-70
2022/12/21 03:57:57;;;;;;;12.98;3.45;;;6.90;99.90;;;;;;5053213;28;20116;-70
2022/12/21 04:00:26;;;;;;;16.40;2.97;;;6.90;99.90;;;;;;5035012;28;20098;-70
2022/12/21 04:03:15;;;;;;;13.75;3.50;;;6.90;99.90;;;;;;5053122;28;20060;-69
2022/12/21 04:05:51;;;;;;;11.18;3.70;;;6.90;99.90;;;;;;5052783;28;20119;-70
2022/12/21 04:08:17;;;;;;;18.63;3.85;;;6.90;99.90;;;;;;5053118;28;20033;-71
2022/12/21 04:10:45;;;;;;;7.43;3.55;;;6.90;99.90;;;;;;5018533;28;20507;-70
2022/12/21 04:13:10;;;;;;;11.68;3.63;;;6.90;99.90;;;;;;5018423;28;20043;-70
2022/12/21 04:19:57;;;;;;;17.30;3.42;;;6.90;99.90;;;;;;5034762;28;20049;-69
2022/12/21 04:21:05;;;;;;;8.95;3.95;;;6.90;99.90;;;;;;5052654;28;20518;-70
2022/12/21 04:28:59;;;;;;;11.85;2.88;;;6.90;99.90;;;;;;5052927;28;20041;-71
2022/12/21 04:31:25;;;;;;;5.93;2.97;;;6.90;99.90;;;;;;5052614;28;20075;-70
2022/12/21 04:33:50;;;;;;;13.85;3.08;;;6.90;99.90;;;;;;5018218;28;20133;-70
2022/12/21 04:39:00;;;;;;;20.20;3.25;;;6.90;99.90;;;;;;5052754;28;20045;-70
2022/12/21 04:41:26;;;;;;;9.52;3.47;;;6.90;99.90;;;;;;5052553;28;20051;-70
2022/12/21 04:43:51;;;;;;;7.28;3.17;;;6.90;99.90;;;;;;5034633;28;20409;-70
2022/12/21 04:46:17;;;;;;;11.05;3.88;;;6.90;99.90;;;;;;5034683;28;20045;-70
2022/12/21 04:48:44;;;;;;;8.52;3.67;;;6.90;99.90;;;;;;5034779;28;20499;-70
2022/12/21 04:51:15;;;;;;;8.77;3.58;;;6.90;99.90;;;;;;5034616;28;20036;-70
2022/12/21 04:53:41;;;;;;;;;;;6.90;99.90;;;;;;5034996;28;20487;-70
2022/12/21 04:56:08;;;;;;;14.32;4.95;;;6.90;99.90;;;;;;5034548;28;19964;-71
2022/12/21 04:58:34;;;;;;;8.45;3.55;;;6.80;99.90;;;;;;5052434;28;20037;-70
2022/12/21 05:01:02;;;;;;;13.65;4.18;;;6.80;99.90;;;;;;5037558;28;20380;-70
2022/12/21 05:03:28;;;;;;;9.32;4.05;;;6.90;99.90;;;;;;5056432;28;20123;-70
2022/12/21 05:05:53;;;;;;;11.05;3.90;;;6.90;99.90;;;;;;5038050;28;20110;-70
2022/12/21 05:08:19;;;;;;;17.27;5.22;;;6.80;99.90;;;;;;5038153;28;20044;-70
2022/12/21 05:10:45;;;;;;;6.78;3.42;;;6.80;99.90;;;;;;5038436;28;20451;-70
2022/12/21 05:13:10;;;;;;;14.85;3.95;;;6.80;99.90;;;;;;5038110;28;20037;-70
2022/12/21 05:15:37;;;;;;;9.98;4.38;;;6.80;99.90;;;;;;5056177;28;20094;-70
2022/12/21 05:18:04;;;;;;;13.75;4.18;;;6.80;99.90;;;;;;5038346;28;20084;-70
2022/12/21 05:20:29;;;;;;;12.60;4.32;;;6.80;99.90;;;;;;5056098;28;20063;-70
2022/12/21 05:22:55;;;;;;;18.27;4.90;;;6.80;99.90;;;;;;5037930;28;20048;-70
2022/12/21 05:25:20;;;;;;;14.68;4.97;;;6.80;99.90;;;;;;5056056;28;20112;-70
2022/12/21 05:27:46;;;;;;;9.77;4.68;;;6.80;99.90;;;;;;5056011;28;20472;-70
2022/12/21 05:30:12;;;;;;;14.68;4.55;;;6.80;99.90;;;;;;5055934;28;20032;-70
2022/12/21 05:32:38;;;;;;;13.13;4.00;;;6.80;99.90;;;;;;5055920;28;20124;-70
2022/12/21 05:35:04;;;;;;;19.58;5.05;;;6.80;99.90;;;;;;5038002;28;20048;-70
2022/12/21 05:37:30;;;;;;;10.20;4.25;;;6.70;99.90;;;;;;5037715;28;20072;-70
2022/12/21 05:39:55;;;;;;;11.13;4.75;;;6.80;99.90;;;;;;5055690;28;20519;-71
2022/12/21 05:42:21;;;;;;;9.73;4.75;;;6.70;99.90;;;;;;5055711;28;20501;-70
2022/12/21 05:44:47;;;;;;;12.52;4.45;;;6.80;99.90;;;;;;5037562;28;20041;-70
2022/12/21 05:47:12;;;;;;;13.15;5.07;;;6.80;99.90;;;;;;5021054;28;20663;-70
2022/12/21 05:49:38;;;;;;;15.88;6.43;;;6.70;99.90;;;;;;5037490;28;20041;-70
2022/12/21 05:52:03;;;;;;;18.48;5.05;;;6.80;99.90;;;;;;5055182;28;20399;-70
2022/12/21 05:54:29;;;;;;;12.73;5.22;;;6.80;99.90;;;;;;5037625;28;20045;-70
2022/12/21 05:56:54;;;;;;;14.23;5.30;;;6.80;99.90;;;;;;5021072;28;20045;-71
2022/12/21 05:59:20;;;;;;;16.92;5.35;;;6.80;99.90;;;;;;5055116;28;20045;-70
2022/12/21 06:01:46;;;;;;;13.30;5.63;;;6.80;99.90;;;;;;5037454;28;20472;-70
2022/12/21 06:04:11;;;;;;;25.80;5.97;;;6.80;99.90;;;;;;5055322;28;20037;-71
2022/12/21 06:06:37;;;;;;;19.95;5.53;;;6.80;99.90;;;;;;5054835;28;20515;-70
2022/12/21 06:09:03;;;;;;;15.43;5.97;;;6.80;99.90;;;;;;5055259;28;20048;-72
2022/12/21 06:11:29;;;;;;;15.02;6.10;;;6.80;99.90;;;;;;5053949;28;20049;-70
2022/12/21 06:13:54;;;;;;;16.70;5.57;;;6.90;99.90;;;;;;5037182;28;20369;-69
2022/12/21 06:16:25;;;;;;;13.98;6.10;;;6.80;99.90;;;;;;5055088;28;20120;-71
2022/12/21 06:18:51;;;;;;;17.73;5.93;;;6.90;99.90;;;;;;5054934;28;20087;-69
2022/12/21 06:21:18;;;;;;;15.65;5.57;;;6.80;99.90;;;;;;5054862;28;20399;-70
2022/12/21 06:23:45;;;;;;;13.13;5.70;;;6.90;99.90;;;;;;5036582;28;20037;-70
2022/12/21 06:26:14;;;;;;;17.95;6.28;;;6.90;99.90;;;;;;5054764;28;20029;-70
2022/12/21 06:28:39;;;;;;;18.40;6.15;;;6.90;99.90;;;;;;5054652;28;20126;-71
2022/12/21 06:31:12;;;;;;;21.05;6.50;;;6.90;99.90;;;;;;5036663;28;20469;-69
2022/12/21 06:33:38;;;;;;;15.80;5.82;;;6.90;99.90;;;;;;5054498;28;20080;-69
2022/12/21 06:36:05;;;;;;;15.52;6.82;;;6.90;99.90;;;;;;5054672;28;20049;-70
2022/12/21 06:38:31;;;;;;;15.90;6.05;;;6.90;99.90;;;;;;5036740;28;20045;-70
2022/12/21 06:40:59;;;;;;;23.70;6.95;;;6.90;99.90;;;;;;5054610;28;20098;-70
2022/12/21 06:43:26;;;;;;;18.38;7.00;;;6.90;99.90;;;;;;5054581;28;20119;-70
2022/12/21 06:45:57;;;;;;;10.95;5.68;;;6.90;99.90;;;;;;5036374;28;20098;-68
2022/12/21 06:48:24;;;;;;;21.17;7.20;;;7.00;99.90;;;;;;5054472;28;20033;-69
2022/12/21 06:50:59;;;;;;;19.45;6.93;;;7.00;99.90;;;;;;5036373;28;20080;-70
2022/12/21 06:53:29;;;;;;;18.17;6.93;;;7.00;99.90;;;;;;5036690;28;20045;-70
2022/12/21 06:56:07;;;;;;;16.63;6.07;;;7.00;99.90;;;;;;5036208;28;20033;-73
2022/12/21 06:58:34;;;;;;;12.75;6.72;;;7.00;99.90;;;;;;5036071;28;20535;-70
2022/12/21 07:01:11;;;;;;;17.20;5.78;;;7.00;99.90;;;;;;5054177;28;20033;-72
2022/12/21 07:03:38;;;;;;;19.50;6.72;;;7.10;99.90;;;;;;5053770;28;20423;-72
2022/12/21 07:06:04;;;;;;;18.13;6.75;;;7.00;99.90;;;;;;5019276;28;20103;-70
2022/12/21 07:08:30;;;;;;;16.23;7.35;;;7.10;99.90;;;;;;5035803;28;20124;-69
2022/12/21 07:11:04;;;;;;;21.83;7.43;;;7.10;99.90;;;;;;5053996;28;20029;-69
2022/12/21 07:13:30;;;;;;;25.65;7.75;;;7.10;99.90;;;;;;5053883;28;20381;-66
2022/12/21 07:15:56;;;;;;;18.05;7.88;;;7.10;99.90;;;;;;5035640;28;20043;-69
2022/12/21 07:18:23;;;;;;;13.00;6.00;;;7.10;99.90;;;;;;5035705;28;20037;-70
2022/12/21 07:20:54;;;;;;;22.02;9.52;;;7.10;99.90;;;;;;5035545;28;20069;-69
2022/12/21 07:23:20;;;;;;;;;;;7.20;99.90;;;;;;5053753;28;20492;-70
2022/12/21 07:25:45;;;;;;;17.90;8.18;;;7.20;99.90;;;;;;5019084;28;19959;-70
2022/12/21 07:28:11;;;;;;;26.20;8.60;;;7.20;99.90;;;;;;5035536;28;20392;-70
2022/12/21 07:30:36;;;;;;;23.25;8.35;;;7.20;99.90;;;;;;5053571;28;20366;-70
2022/12/21 07:33:02;;;;;;;21.30;9.63;;;7.20;99.90;;;;;;5035652;28;20033;-71
2022/12/21 07:35:28;;;;;;;17.52;8.35;;;7.20;99.90;;;;;;5053148;28;20076;-70
2022/12/21 07:37:53;;;;;;;28.23;9.15;;;7.20;99.90;;;;;;5053361;28;20052;-69
2022/12/21 07:40:19;;;;;;;15.43;7.30;;;7.20;99.90;;;;;;5035267;28;20454;-70
2022/12/21 07:42:46;;;;;;;23.17;7.68;;;7.20;99.90;;;;;;5053404;28;20040;-70
2022/12/21 07:45:13;;;;;;;17.90;8.07;;;7.20;99.90;;;;;;5035730;28;20040;-70
2022/12/21 07:47:38;;;;;;;21.88;8.75;;;7.20;99.90;;;;;;5053414;28;20051;-70
2022/12/21 07:50:06;;;;;;;23.77;9.10;;;7.20;99.90;;;;;;5053369;28;20123;-69
2022/12/21 07:52:33;;;;;;;20.80;8.30;;;7.20;99.90;;;;;;5053218;28;20493;-68
2022/12/21 07:54:58;;;;;;;19.20;8.18;;;7.20;99.90;;;;;;5053326;28;20095;-69
2022/12/21 07:57:24;;;;;;;13.48;7.05;;;7.20;99.90;;;;;;5035475;28;20076;-69
2022/12/21 07:59:50;;;;;;;16.38;7.32;;;7.20;99.90;;;;;;5052899;28;20076;-70
2022/12/21 08:02:16;;;;;;;19.95;8.40;;;7.50;99.90;;;;;;5053214;28;20073;-70
2022/12/21 08:04:41;;;;;;;21.73;7.55;;;7.20;99.90;;;;;;5035216;28;20045;-70
2022/12/21 08:07:07;;;;;;;20.40;6.88;;;7.20;99.90;;;;;;5052805;28;20509;-70
2022/12/21 08:09:33;;;;;;;17.85;7.30;;;7.20;99.90;;;;;;5052830;28;20076;-70
2022/12/21 08:11:59;;;;;;;18.25;6.95;;;7.20;99.90;;;;;;5035221;28;20498;-70
2022/12/21 08:14:24;;;;;;;15.70;6.75;;;7.20;99.90;;;;;;5053080;28;20116;-69
2022/12/21 08:16:50;;;;;;;20.52;7.85;;;7.20;99.90;;;;;;5052759;28;20040;-70
2022/12/21 08:19:15;;;;;;;15.80;6.72;;;7.20;99.90;;;;;;5052748;28;20041;-69
2022/12/21 08:21:41;;;;;;;16.92;7.22;;;7.60;99.90;;;;;;5052830;28;20036;-69
2022/12/21 08:24:07;;;;;;;13.20;6.55;;;7.20;99.90;;;;;;5052862;28;20412;-70
2022/12/21 08:26:32;;;;;;;14.95;5.78;;;7.20;99.90;;;;;;5052575;28;20495;-70
2022/12/21 08:28:59;;;;;;;15.60;6.72;;;7.20;99.90;;;;;;5052771;28;20037;-70
2022/12/21 08:31:25;;;;;;;17.00;6.93;;;7.20;99.90;;;;;;5052730;28;20041;-69
2022/12/21 08:33:51;;;;;;;17.33;7.47;;;7.20;99.90;;;;;;5052716;28;20167;-70
2022/12/21 08:36:20;;;;;;;20.98;7.13;;;7.20;99.90;;;;;;5055759;28;20037;-70
2022/12/21 08:38:46;;;;;;;13.20;5.78;;;7.20;99.90;;;;;;5056748;28;20443;-70
2022/12/21 08:41:12;;;;;;;14.80;6.80;;;7.20;99.90;;;;;;5056700;28;20095;-70
2022/12/21 08:43:38;;;;;;;18.13;8.25;;;7.20;99.90;;;;;;5038854;28;20037;-69
2022/12/21 08:46:05;;;;;;;16.35;6.65;;;7.10;99.90;;;;;;5056591;28;20083;-69
2022/12/21 08:48:31;;;;;;;18.50;7.68;;;7.10;99.90;;;;;;5038904;28;20477;-70
2022/12/21 08:50:57;;;;;;;18.30;7.82;;;7.10;99.90;;;;;;5056625;28;20032;-70
2022/12/21 08:53:23;;;;;;;22.45;7.05;;;7.10;99.90;;;;;;5038637;28;20045;-69
2022/12/21 08:55:48;;;;;;;17.45;7.10;;;7.10;99.90;;;;;;5056290;28;20485;-70
2022/12/21 08:58:14;;;;;;;22.88;6.85;;;7.10;99.90;;;;;;5056176;28;20074;-69
2022/12/21 09:00:42;;;;;;;14.63;6.15;;;7.10;99.90;;;;;;5056498;28;20108;-69
2022/12/21 09:03:08;;;;;;;15.00;6.63;;;7.20;99.90;;;;;;5056161;28;20138;-70
2022/12/21 09:05:34;;;;;;;19.48;8.07;;;7.20;99.90;;;;;;5055851;28;20056;-69
2022/12/21 09:08:00;;;;;;;17.75;7.47;;;7.30;99.90;;;;;;5056301;28;20037;-70
2022/12/21 09:10:26;;;;;;;25.98;8.52;;;7.30;99.90;;;;;;5038411;28;20048;-69
2022/12/21 09:12:54;;;;;;;19.10;7.97;;;7.30;99.90;;;;;;5056250;28;20037;-69
2022/12/21 09:15:20;;;;;;;18.73;8.02;;;7.40;99.90;;;;;;5038116;28;20052;-69
2022/12/21 09:17:46;;;;;;;26.10;8.45;;;7.40;99.90;;;;;;5038001;28;20438;-69
2022/12/21 09:20:12;;;;;;;17.88;8.40;;;7.40;99.90;;;;;;5056102;28;20090;-70
2022/12/21 09:22:37;;;;;;;23.48;8.27;;;7.50;99.90;;;;;;5038437;28;20051;-68
2022/12/21 09:25:03;;;;;;;17.17;7.65;;;7.50;99.90;;;;;;5056162;28;20136;-70
2022/12/21 09:27:29;;;;;;;15.32;7.07;;;7.50;99.90;;;;;;5055723;28;20068;-70
2022/12/21 09:29:55;;;;;;;18.92;8.10;;;7.60;99.90;;;;;;5055947;28;20069;-69
2022/12/21 09:32:20;;;;;;;20.80;7.28;;;7.70;99.90;;;;;;5055992;28;20040;-70
2022/12/21 09:34:46;;;;;;;25.70;8.52;;;7.70;99.90;;;;;;5055584;28;20476;-69
2022/12/21 09:37:11;;;;;;;22.05;9.38;;;7.70;99.90;;;;;;5055539;28;20045;-70
2022/12/21 09:39:38;;;;;;;28.67;9.13;;;7.80;99.90;;;;;;5055740;28;20045;-69
2022/12/21 09:42:35;;;;;;;21.17;8.55;;;7.80;99.90;;;;;;5055783;28;20052;-69
2022/12/21 09:45:09;;;;;;;24.27;9.30;;;8.00;99.90;;;;;;5055426;28;20041;-69
2022/12/21 09:47:53;;;;;;;27.27;9.45;;;8.00;99.90;;;;;;5055418;28;20025;-69
2022/12/21 09:50:25;;;;;;;22.30;7.80;;;7.90;99.90;;;;;;5055631;28;20039;-69
2022/12/21 09:53:26;;;;;;;20.25;8.70;;;8.00;99.90;;;;;;5055615;28;20037;-70
2022/12/21 09:55:58;;;;;;;24.60;9.52;;;7.90;99.90;;;;;;5051118;28;20053;-70
2022/12/21 09:58:45;;;;;;;22.00;8.60;;;8.00;99.90;;;;;;5055381;28;20037;-70
2022/12/21 10:01:21;;;;;;;19.77;7.43;;;7.90;99.90;;;;;;5054899;28;20052;-69
2022/12/21 10:04:28;;;;;;;28.00;9.10;;;7.90;99.90;;;;;;5055335;28;20037;-68
2022/12/21 10:07:30;;;;;;;28.30;9.55;;;7.90;99.90;;;;;;5044463;28;20057;-70
2022/12/21 10:10:18;;;;;;;26.52;10.55;;;7.90;99.90;;;;;;5055168;28;20045;-69
2022/12/21 10:12:49;;;;;;;31.15;9.93;;;7.90;99.90;;;;;;5054888;28;20381;-69
2022/12/21 10:15:50;;;;;;;23.13;9.83;;;7.90;99.90;;;;;;5037003;28;20489;-72
2022/12/21 10:18:31;;;;;;;21.20;8.88;;;7.90;99.90;;;;;;5037660;28;20102;-71
2022/12/21 10:21:02;;;;;;;24.33;8.13;;;7.90;99.90;;;;;;5054009;28;20045;-68
2022/12/21 10:23:35;;;;;;;28.80;10.65;;;7.90;99.90;;;;;;5053896;28;20041;-70
2022/12/21 10:26:05;;;;;;;27.08;9.70;;;7.80;99.90;;;;;;5035986;28;20064;-70
2022/12/21 10:29:02;;;;;;;26.67;9.82;;;7.80;99.90;;;;;;5036112;28;20045;-70
2022/12/21 10:31:35;;;;;;;24.95;8.65;;;7.80;99.90;;;;;;5053556;28;20037;-69
2022/12/21 10:34:05;;;;;;;24.42;9.15;;;7.70;99.90;;;;;;5036349;28;20045;-69
2022/12/21 10:36:36;;;;;;;27.90;9.50;;;7.70;99.90;;;;;;5053230;28;20564;-70
2022/12/21 10:39:08;;;;;;;27.10;9.40;;;7.80;99.90;;;;;;5035823;28;20044;-70
2022/12/21 10:41:38;;;;;;;25.95;9.48;;;7.80;99.90;;;;;;5035337;28;20052;-69
2022/12/21 10:44:04;;;;;;;32.38;9.90;;;7.80;99.90;;;;;;5035558;28;20506;-70
2022/12/21 10:46:32;;;;;;;23.98;9.07;;;7.80;99.90;;;;;;5035403;28;20037;-70
2022/12/21 10:49:21;;;;;;;21.88;9.48;;;7.80;99.90;;;;;;5053107;28;20416;-70
2022/12/21 10:51:46;;;;;;;26.20;10.07;;;7.90;99.90;;;;;;5053079;28;20037;-69
2022/12/21 10:54:12;;;;;;;29.20;10.27;;;8.00;99.90;;;;;;5053284;28;20037;-69
2022/12/21 10:56:49;;;;;;;25.17;8.52;;;8.00;99.90;;;;;;5053379;28;20041;-70
2022/12/21 10:59:29;;;;;;;26.70;8.95;;;8.00;99.90;;;;;;5052522;28;20037;-70
2022/12/21 11:01:55;;;;;;;28.33;10.20;;;8.00;99.90;;;;;;5053351;28;20088;-70
2022/12/21 11:04:26;;;;;;;17.67;8.05;;;7.90;99.90;;;;;;5052981;28;20037;-69
2022/12/21 11:06:56;;;;;;;17.58;6.93;;;7.90;99.90;;;;;;5052985;28;20476;-70
2022/12/21 11:10:01;;;;;;;26.25;7.45;;;7.90;99.90;;;;;;5053160;28;20087;-70
2022/12/21 11:12:27;;;;;;;16.63;7.47;;;7.90;99.90;;;;;;5052858;28;20047;-69
2022/12/21 11:14:54;;;;;;;19.55;7.00;;;7.90;99.90;;;;;;5053158;28;20041;-70
2022/12/21 11:17:24;;;;;;;25.80;9.23;;;7.90;99.90;;;;;;5053139;28;20045;-70
2022/12/21 11:20:13;;;;;;;24.50;8.95;;;7.90;99.90;;;;;;5052916;28;20041;-70
2022/12/21 11:22:43;;;;;;;29.25;8.80;;;7.90;99.90;;;;;;5035167;28;20051;-70
2022/12/21 11:25:18;;;;;;;20.48;8.60;;;7.90;99.90;;;;;;5052965;28;20064;-71
2022/12/21 11:27:47;;;;;;;21.23;8.82;;;8.00;99.90;;;;;;5052498;28;20037;-70
2022/12/21 11:30:21;;;;;;;27.42;9.25;;;8.00;99.90;;;;;;5034637;28;20049;-68
2022/12/21 11:32:49;;;;;;;14.32;7.45;;;8.10;99.90;;;;;;5052473;28;20479;-69
2022/12/21 11:35:20;;;;;;;25.13;9.98;;;8.20;99.90;;;;;;5052673;28;20037;-69
2022/12/21 11:37:50;;;;;;;;;;;8.20;99.90;;;;;;5035049;28;20044;-69
2022/12/21 11:40:24;;;;;;;21.88;7.70;;;8.40;99.90;;;;;;5052586;28;19925;-69
2022/12/21 11:42:59;;;;;;;22.98;7.72;;;8.50;99.90;;;;;;5052577;28;20037;-70
2022/12/21 11:45:42;;;;;;;18.40;8.20;;;8.50;99.90;;;;;;5052559;28;20072;-68
2022/12/21 11:48:07;;;;;;;26.45;8.35;;;8.60;99.90;;;;;;5052377;28;20123;-68
2022/12/21 11:50:42;;;;;;;27.17;9.13;;;8.70;99.90;;;;;;5052449;28;20127;-68
2022/12/21 11:53:27;;;;;;;24.95;9.15;;;10.40;99.90;;;;;;5052335;28;20090;-68
2022/12/21 11:56:19;;;;;;;23.30;9.23;;;9.00;99.90;;;;;;5052309;28;20052;-68
2022/12/21 11:59:19;;;;;;;19.40;8.25;;;9.30;99.90;;;;;;5052280;28;20037;-68
2022/12/21 12:02:10;;;;;;;21.38;8.07;;;9.40;99.90;;;;;;5051976;28;20044;-68
2022/12/21 12:04:48;;;;;;;;;;;9.40;99.90;;;;;;5020741;28;20091;-69
2022/12/21 12:07:26;;;;;;;21.13;7.80;;;9.50;99.90;;;;;;5052091;28;19921;-69
2022/12/21 12:10:18;;;;;;;21.30;8.82;;;9.50;99.90;;;;;;5051214;28;20094;-69
2022/12/21 12:13:06;;;;;;;17.67;7.68;;;9.60;99.90;;;;;;5051883;28;20043;-69
2022/12/21 12:15:43;;;;;;;21.15;7.28;;;9.50;99.90;;;;;;5034068;28;20092;-69
2022/12/21 12:18:47;;;;;;;16.88;7.93;;;9.50;99.90;;;;;;5034193;28;20124;-69
2022/12/21 12:22:20;;;;;;;25.25;7.55;;;9.40;99.90;;;;;;5052127;28;20056;-71
2022/12/21 12:25:12;;;;;;;22.85;8.10;;;9.20;99.90;;;;;;4939692;28;20434;-66
2022/12/21 12:28:06;;;;;;;23.42;7.68;;;9.10;99.90;;;;;;5033818;28;20077;-67
2022/12/21 12:31:04;;;;;;;18.75;7.80;;;8.90;99.90;;;;;;5033604;28;20044;-66
2022/12/21 12:33:58;;;;;;;16.50;7.65;;;8.90;99.90;;;;;;5052081;28;20484;-67
2022/12/21 12:36:45;;;;;;;25.23;8.70;;;9.00;99.90;;;;;;5020648;28;20131;-67
2022/12/21 12:39:18;;;;;;;20.40;7.93;;;9.00;99.90;;;;;;5051841;28;20051;-66
2022/12/21 12:42:21;;;;;;;18.83;7.70;;;9.00;99.90;;;;;;5051647;28;20041;-66
2022/12/21 12:45:12;;;;;;;18.67;8.10;;;8.90;99.90;;;;;;5046620;28;20084;-67
2022/12/21 12:48:09;;;;;;;26.52;8.30;;;8.80;99.90;;;;;;5051369;28;20124;-67
2022/12/21 12:51:05;;;;;;;20.88;7.72;;;8.80;99.90;;;;;;5051770;28;20080;-66
2022/12/21 12:53:49;;;;;;;21.05;7.45;;;8.80;99.90;;;;;;5051740;28;20133;-67
2022/12/21 12:56:31;;;;;;;22.58;7.80;;;8.70;99.90;;;;;;5051807;28;20044;-66
2022/12/21 12:59:22;;;;;;;21.08;8.05;;;8.70;99.90;;;;;;5051629;28;20119;-66
2022/12/21 13:02:00;;;;;;;20.10;7.70;;;8.60;99.90;;;;;;5040209;28;20045;-67
2022/12/21 13:04:52;;;;;;;15.85;8.23;;;8.60;99.90;;;;;;5051439;28;20040;-66
2022/12/21 13:07:50;;;;;;;20.40;8.20;;;8.60;99.90;;;;;;5033830;28;20439;-67
2022/12/21 13:10:22;;;;;;;18.05;7.85;;;8.60;99.90;;;;;;5051280;28;20041;-67
2022/12/21 13:13:04;;;;;;;25.77;8.93;;;8.60;99.90;;;;;;5051125;28;20044;-68
2022/12/21 13:15:59;;;;;;;22.30;8.48;;;8.60;99.90;;;;;;5033475;28;20039;-67
2022/12/21 13:18:38;;;;;;;19.77;7.72;;;8.60;99.90;;;;;;5051512;28;20373;-67
2022/12/21 13:21:07;;;;;;;22.17;8.35;;;8.60;99.90;;;;;;5052431;28;20419;-67
2022/12/21 13:24:04;;;;;;;22.55;9.07;;;8.60;99.90;;;;;;5055161;28;20361;-66
2022/12/21 13:26:39;;;;;;;20.75;8.05;;;8.60;99.90;;;;;;5055062;28;20087;-66
2022/12/21 13:29:09;;;;;;;16.88;7.38;;;8.60;99.90;;;;;;5020456;28;20048;-67